AirNav   Pilot Hours Calculator
 
 1431 users online  

20TA Mag Drop Airport
Bells, Texas, USA

GOING TO BELLS?


FAA INFORMATION EFFECTIVE 07 NOVEMBER 2019

Location

FAA Identifier: 20TA
Lat/Long: 33-33-33.0000N 096-24-34.0000W
33-33.550000N 096-24.566667W
33.5591667,-96.4094444
(estimated)
Elevation: 740 ft. / 226 m (estimated)
From city: 5 miles S of BELLS, TX
Time zone: UTC -6 (UTC -5 during Daylight Saving Time)
Zip code: 75491

Airport Operations

Airport use: Private use. Permission required prior to landing
Activation date: 02/2008
Control tower: no
ARTCC: FORT WORTH CENTER
FSS: FORT WORTH FLIGHT SERVICE STATION
Attendance: UNATNDD
Segmented circle: no

Airport Communications

WX AWOS-3PT at F00 (12 nm E): 118.05 (903-583-2082)
WX AWOS-3 at GYI (16 nm NW): 118.775 (903-786-7790)

Nearby radio navigation aids

VOR radial/distance  VOR name  Freq  Var
BYPr272/8.9BONHAM VORTAC114.6006E
URHr177/23.1TEXOMA VOR/DME114.3005E

 
NDB name  Hdg/Dist  Freq  Var  ID
DENISON135/20.634106EDNI -.. -. ..
CADDO MILLS339/32.231606EMII -- .. ..

Airport Services

Runway Information

Runway 18/36

Dimensions: 2300 x 50 ft. / 701 x 15 m
Surface: turf
RUNWAY 18  RUNWAY 36
Traffic pattern: leftright
Obstructions: tower1045 ft. tower, 13165 ft. from runway

Airport Ownership and Management from official FAA records

Ownership: Privately-owned
Owner: JEREL A. HARVEY
859 PENNY RD
BELLS, TX 75414
Phone 214-908-3057
Manager: JEREL A. HARVEY
859 PENNY RD
BELLS, TX 75414
Phone 214-908-3057

Airport Operational Statistics

Aircraft based on the field: 1
Single engine airplanes: 1
    

Additional Remarks

OWNER REQUESTS CHARTING.
FOR CD CTC FORT WORTH ARTCC AT 817-858-7584.

Instrument Procedures

There are no published instrument procedures at 20TA.

Some nearby airports with instrument procedures:

KSWI - Sherman Municipal Airport (10 nm NW)
F00 - Jones Field Airport (12 nm E)
KGYI - North Texas Regional Airport/Perrin Field (16 nm NW)
KDUA - Durant Regional Airport - Eaker Field (23 nm N)
KTKI - McKinney National Airport (25 nm S)
 
Loc | Ops | Rwys | IFR | FBO | Links
Com | Nav | Svcs | Stats | Notes
Aerial photo
No photo
 
Sectional chart

 
Airport distance calculator
Flying to Mag Drop Airport? Find the distance to fly.

From to 20TA

Sunrise and sunset
Times for 22-Nov-2019
 Local
(UTC-6)
 Zulu
(UTC)
Morning civil twilight06:3812:38
Sunrise07:0513:05
Sunset17:1923:19
Evening civil twilight17:4623:46

Current date and time
Zulu (UTC)  22-Nov-2019 15:09:00
Local (UTC-6)  22-Nov-2019 09:09:00
 
METAR
KF00 
12nm E 
221455Z AUTO 34009KT 10SM 07/06 A3006 RMK AO2 P0001 T00660058 60020
KGYI 
16nm NW 
221450Z 35012G16KT 10SM OVCO11 07/05 A3011
KDUA 
23nm N 
221458Z AUTO 33010G14KT 10SM OVC010 07/05 A3011 RMK AO2
TAF
KDAL 
48nm SW 
221418Z 2214/2312 35016KT P6SM VCTS OVC009CB FM221500 34012KT P6SM VCSH SCT009 BKN015 OVC070 FM221800 33012KT P6SM BKN025 FM230000 34009KT P6SM BKN035 FM230500 33006KT P6SM FEW035 SCT250
KDFW 
50nm SW 
221418Z 2214/2318 35013KT P6SM VCTS OVC009CB FM221500 34012KT P6SM VCSH SCT009 BKN015 OVC070 FM221800 33012KT P6SM BKN025 FM230000 34009KT P6SM BKN035 FM230500 33006KT P6SM FEW035 SCT250
NOTAMs
Click for the latest NOTAMs
NOTAMs are issued by the DoD/FAA and will open in a separate window not controlled by AirNav.

 

 
 

Would you like to see your business listed on this page?

 If your business provides an interesting product or service to pilots, flight crews, aircraft, or users of the Mag Drop Airport, you should consider listing it here.  To start the listing process, click on the button below
 
Add a business
 

Other Pages about Mag Drop Airport

Update a link
 
Copyright © AirNav, LLC. All rights reserved. Privacy Policy  Contact